sensor_id;sensor_type;location;lat;lon;timestamp;temperature;humidity
7341;DHT22;6870;50.944;6.932;2022-08-03T00:02:17;27.00;28.40
7341;DHT22;6870;50.944;6.932;2022-08-03T00:04:45;27.10;27.80
7341;DHT22;6870;50.944;6.932;2022-08-03T00:07:15;27.10;27.80
7341;DHT22;6870;50.944;6.932;2022-08-03T00:09:44;26.90;27.80
7341;DHT22;6870;50.944;6.932;2022-08-03T00:12:12;27.20;27.90
7341;DHT22;6870;50.944;6.932;2022-08-03T00:14:40;27.10;28.50
7341;DHT22;6870;50.944;6.932;2022-08-03T00:17:09;27.00;27.90
7341;DHT22;6870;50.944;6.932;2022-08-03T00:19:37;27.00;27.90
7341;DHT22;6870;50.944;6.932;2022-08-03T00:22:05;27.30;28.20
7341;DHT22;6870;50.944;6.932;2022-08-03T00:24:34;26.90;28.00
7341;DHT22;6870;50.944;6.932;2022-08-03T00:27:03;27.40;28.30
7341;DHT22;6870;50.944;6.932;2022-08-03T00:29:31;27.00;28.10
7341;DHT22;6870;50.944;6.932;2022-08-03T00:32:19;27.10;28.20
7341;DHT22;6870;50.944;6.932;2022-08-03T00:34:50;27.10;28.20
7341;DHT22;6870;50.944;6.932;2022-08-03T00:37:25;26.70;28.00
7341;DHT22;6870;50.944;6.932;2022-08-03T00:40:10;27.00;28.20
7341;DHT22;6870;50.944;6.932;2022-08-03T00:42:47;27.20;28.40
7341;DHT22;6870;50.944;6.932;2022-08-03T00:45:16;27.10;28.50
7341;DHT22;6870;50.944;6.932;2022-08-03T00:47:45;26.70;28.30
7341;DHT22;6870;50.944;6.932;2022-08-03T00:50:13;27.00;28.50
7341;DHT22;6870;50.944;6.932;2022-08-03T00:52:42;27.10;28.50
7341;DHT22;6870;50.944;6.932;2022-08-03T00:55:12;27.10;28.60
7341;DHT22;6870;50.944;6.932;2022-08-03T00:57:41;27.00;28.60
7341;DHT22;6870;50.944;6.932;2022-08-03T01:00:11;27.10;28.70
7341;DHT22;6870;50.944;6.932;2022-08-03T01:02:41;27.00;28.70
7341;DHT22;6870;50.944;6.932;2022-08-03T01:05:09;27.20;28.80
7341;DHT22;6870;50.944;6.932;2022-08-03T01:07:49;27.40;28.90
7341;DHT22;6870;50.944;6.932;2022-08-03T01:10:35;27.00;28.70
7341;DHT22;6870;50.944;6.932;2022-08-03T01:13:18;27.00;28.80
7341;DHT22;6870;50.944;6.932;2022-08-03T01:16:14;27.00;28.80
7341;DHT22;6870;50.944;6.932;2022-08-03T01:18:51;26.90;28.90
7341;DHT22;6870;50.944;6.932;2022-08-03T01:21:25;26.90;28.90
7341;DHT22;6870;50.944;6.932;2022-08-03T01:24:10;27.10;29.00
7341;DHT22;6870;50.944;6.932;2022-08-03T01:27:02;27.10;29.00
7341;DHT22;6870;50.944;6.932;2022-08-03T01:29:51;26.90;29.00
7341;DHT22;6870;50.944;6.932;2022-08-03T01:32:30;27.00;29.10
7341;DHT22;6870;50.944;6.932;2022-08-03T01:35:25;27.00;29.10
7341;DHT22;6870;50.944;6.932;2022-08-03T01:37:58;27.00;29.10
7341;DHT22;6870;50.944;6.932;2022-08-03T01:40:30;26.90;29.10
7341;DHT22;6870;50.944;6.932;2022-08-03T01:43:02;27.10;29.20
7341;DHT22;6870;50.944;6.932;2022-08-03T01:45:33;27.00;29.20
7341;DHT22;6870;50.944;6.932;2022-08-03T01:48:04;26.80;29.10
7341;DHT22;6870;50.944;6.932;2022-08-03T01:50:34;27.10;29.20
7341;DHT22;6870;50.944;6.932;2022-08-03T01:53:02;26.60;28.90
7341;DHT22;6870;50.944;6.932;2022-08-03T01:55:32;26.60;29.00
7341;DHT22;6870;50.944;6.932;2022-08-03T01:58:02;26.60;29.00
7341;DHT22;6870;50.944;6.932;2022-08-03T02:00:36;27.00;29.30
7341;DHT22;6870;50.944;6.932;2022-08-03T02:03:06;27.00;29.30
7341;DHT22;6870;50.944;6.932;2022-08-03T02:05:37;26.60;29.10
7341;DHT22;6870;50.944;6.932;2022-08-03T02:08:09;27.00;29.30
7341;DHT22;6870;50.944;6.932;2022-08-03T02:10:40;27.10;29.40
7341;DHT22;6870;50.944;6.932;2022-08-03T02:13:10;26.90;29.30
7341;DHT22;6870;50.944;6.932;2022-08-03T02:15:41;26.50;29.10
7341;DHT22;6870;50.944;6.932;2022-08-03T02:18:10;27.00;29.40
7341;DHT22;6870;50.944;6.932;2022-08-03T02:20:41;26.90;29.40
7341;DHT22;6870;50.944;6.932;2022-08-03T02:23:10;27.00;29.40
7341;DHT22;6870;50.944;6.932;2022-08-03T02:25:42;26.80;29.40
7341;DHT22;6870;50.944;6.932;2022-08-03T02:28:16;26.80;29.40
7341;DHT22;6870;50.944;6.932;2022-08-03T02:30:52;26.80;29.40
7341;DHT22;6870;50.944;6.932;2022-08-03T02:33:25;26.50;29.30
7341;DHT22;6870;50.944;6.932;2022-08-03T02:35:55;27.00;29.60
7341;DHT22;6870;50.944;6.932;2022-08-03T02:38:28;26.80;29.60
7341;DHT22;6870;50.944;6.932;2022-08-03T02:41:00;26.90;29.60
7341;DHT22;6870;50.944;6.932;2022-08-03T02:43:34;26.80;29.60
7341;DHT22;6870;50.944;6.932;2022-08-03T02:46:27;26.80;29.60
7341;DHT22;6870;50.944;6.932;2022-08-03T02:48:59;26.80;29.70
7341;DHT22;6870;50.944;6.932;2022-08-03T02:51:51;27.00;29.80
7341;DHT22;6870;50.944;6.932;2022-08-03T02:54:22;26.80;29.80
7341;DHT22;6870;50.944;6.932;2022-08-03T02:56:53;26.80;29.80
7341;DHT22;6870;50.944;6.932;2022-08-03T02:59:24;26.70;29.80
7341;DHT22;6870;50.944;6.932;2022-08-03T03:01:55;26.70;29.80
7341;DHT22;6870;50.944;6.932;2022-08-03T03:04:23;26.50;29.70
7341;DHT22;6870;50.944;6.932;2022-08-03T03:06:59;26.80;30.00
7341;DHT22;6870;50.944;6.932;2022-08-03T03:09:31;26.80;30.00
7341;DHT22;6870;50.944;6.932;2022-08-03T03:12:09;26.80;30.00
7341;DHT22;6870;50.944;6.932;2022-08-03T03:14:39;26.60;29.90
7341;DHT22;6870;50.944;6.932;2022-08-03T03:17:09;26.70;30.00
7341;DHT22;6870;50.944;6.932;2022-08-03T03:19:39;26.70;30.00
7341;DHT22;6870;50.944;6.932;2022-08-03T03:22:09;27.00;30.20
7341;DHT22;6870;50.944;6.932;2022-08-03T03:24:39;26.50;30.00
7341;DHT22;6870;50.944;6.932;2022-08-03T03:27:08;27.00;30.20
7341;DHT22;6870;50.944;6.932;2022-08-03T03:29:42;26.80;30.10
7341;DHT22;6870;50.944;6.932;2022-08-03T03:32:12;26.80;30.10
7341;DHT22;6870;50.944;6.932;2022-08-03T03:34:41;26.70;30.30
7341;DHT22;6870;50.944;6.932;2022-08-03T03:37:10;26.50;30.10
7341;DHT22;6870;50.944;6.932;2022-08-03T03:39:38;26.70;30.30
7341;DHT22;6870;50.944;6.932;2022-08-03T03:42:06;26.60;30.30
7341;DHT22;6870;50.944;6.932;2022-08-03T03:44:35;26.50;30.40
7341;DHT22;6870;50.944;6.932;2022-08-03T03:47:03;26.80;30.70
7341;DHT22;6870;50.944;6.932;2022-08-03T03:49:32;26.80;30.90
7341;DHT22;6870;50.944;6.932;2022-08-03T03:52:01;26.80;30.90
7341;DHT22;6870;50.944;6.932;2022-08-03T03:54:38;26.60;30.60
7341;DHT22;6870;50.944;6.932;2022-08-03T03:57:07;26.60;30.60
7341;DHT22;6870;50.944;6.932;2022-08-03T03:59:40;26.80;30.80
7341;DHT22;6870;50.944;6.932;2022-08-03T04:02:09;26.80;30.80
7341;DHT22;6870;50.944;6.932;2022-08-03T04:04:40;26.90;30.90
7341;DHT22;6870;50.944;6.932;2022-08-03T04:07:26;26.50;30.60
7341;DHT22;6870;50.944;6.932;2022-08-03T04:10:16;26.60;30.70
7341;DHT22;6870;50.944;6.932;2022-08-03T04:13:07;26.70;31.00
7341;DHT22;6870;50.944;6.932;2022-08-03T04:15:37;26.70;31.30
7341;DHT22;6870;50.944;6.932;2022-08-03T04:18:08;27.00;31.40
7341;DHT22;6870;50.944;6.932;2022-08-03T04:20:43;26.70;31.20
7341;DHT22;6870;50.944;6.932;2022-08-03T04:23:15;26.60;30.90
7341;DHT22;6870;50.944;6.932;2022-08-03T04:25:45;27.00;31.40
7341;DHT22;6870;50.944;6.932;2022-08-03T04:28:16;26.90;31.30
7341;DHT22;6870;50.944;6.932;2022-08-03T04:30:58;26.80;31.30
7341;DHT22;6870;50.944;6.932;2022-08-03T04:33:28;26.80;31.30
7341;DHT22;6870;50.944;6.932;2022-08-03T04:36:01;26.80;29.50
7341;DHT22;6870;50.944;6.932;2022-08-03T04:38:36;26.70;28.90
7341;DHT22;6870;50.944;6.932;2022-08-03T04:41:06;25.90;28.50
7341;DHT22;6870;50.944;6.932;2022-08-03T04:43:37;26.10;28.60
7341;DHT22;6870;50.944;6.932;2022-08-03T04:46:07;26.10;28.70
7341;DHT22;6870;50.944;6.932;2022-08-03T04:48:38;26.00;28.90
7341;DHT22;6870;50.944;6.932;2022-08-03T04:51:12;25.60;29.30
7341;DHT22;6870;50.944;6.932;2022-08-03T04:53:41;25.40;29.90
7341;DHT22;6870;50.944;6.932;2022-08-03T04:56:10;25.50;30.40
7341;DHT22;6870;50.944;6.932;2022-08-03T04:58:38;25.70;30.50
7341;DHT22;6870;50.944;6.932;2022-08-03T05:01:06;26.10;29.80
7341;DHT22;6870;50.944;6.932;2022-08-03T05:03:34;26.10;29.10
7341;DHT22;6870;50.944;6.932;2022-08-03T05:06:03;26.20;28.90
7341;DHT22;6870;50.944;6.932;2022-08-03T05:08:38;26.50;28.80
7341;DHT22;6870;50.944;6.932;2022-08-03T05:11:13;26.50;28.70
7341;DHT22;6870;50.944;6.932;2022-08-03T05:13:41;26.40;28.70
7341;DHT22;6870;50.944;6.932;2022-08-03T05:16:09;26.30;29.20
7341;DHT22;6870;50.944;6.932;2022-08-03T05:18:37;26.20;28.50
7341;DHT22;6870;50.944;6.932;2022-08-03T05:21:06;26.40;28.60
7341;DHT22;6870;50.944;6.932;2022-08-03T05:23:35;26.70;28.80
7341;DHT22;6870;50.944;6.932;2022-08-03T05:26:04;26.40;28.60
7341;DHT22;6870;50.944;6.932;2022-08-03T05:28:32;26.40;28.70
7341;DHT22;6870;50.944;6.932;2022-08-03T05:31:01;26.30;28.70
7341;DHT22;6870;50.944;6.932;2022-08-03T05:33:29;26.20;28.70
7341;DHT22;6870;50.944;6.932;2022-08-03T05:35:57;26.40;28.70
7341;DHT22;6870;50.944;6.932;2022-08-03T05:38:30;26.60;28.90
7341;DHT22;6870;50.944;6.932;2022-08-03T05:41:02;26.30;28.70
7341;DHT22;6870;50.944;6.932;2022-08-03T05:43:51;26.80;29.00
7341;DHT22;6870;50.944;6.932;2022-08-03T05:46:21;26.60;28.90
7341;DHT22;6870;50.944;6.932;2022-08-03T05:48:49;26.50;28.90
7341;DHT22;6870;50.944;6.932;2022-08-03T05:51:18;26.40;28.80
7341;DHT22;6870;50.944;6.932;2022-08-03T05:53:46;26.20;28.70
7341;DHT22;6870;50.944;6.932;2022-08-03T05:56:14;26.30;28.80
7341;DHT22;6870;50.944;6.932;2022-08-03T05:58:46;26.40;28.90
7341;DHT22;6870;50.944;6.932;2022-08-03T06:01:16;26.50;29.10
7341;DHT22;6870;50.944;6.932;2022-08-03T06:03:44;26.10;28.90
7341;DHT22;6870;50.944;6.932;2022-08-03T06:06:13;26.60;29.20
7341;DHT22;6870;50.944;6.932;2022-08-03T06:08:42;26.70;29.40
7341;DHT22;6870;50.944;6.932;2022-08-03T06:11:12;26.70;29.50
7341;DHT22;6870;50.944;6.932;2022-08-03T06:13:40;26.80;29.60
7341;DHT22;6870;50.944;6.932;2022-08-03T06:16:09;26.60;29.50
7341;DHT22;6870;50.944;6.932;2022-08-03T06:18:38;26.60;29.40
7341;DHT22;6870;50.944;6.932;2022-08-03T06:21:07;26.70;29.50
7341;DHT22;6870;50.944;6.932;2022-08-03T06:23:42;26.80;29.50
7341;DHT22;6870;50.944;6.932;2022-08-03T06:26:25;26.80;29.30
7341;DHT22;6870;50.944;6.932;2022-08-03T06:28:54;26.90;29.20
7341;DHT22;6870;50.944;6.932;2022-08-03T06:31:24;26.80;29.10
7341;DHT22;6870;50.944;6.932;2022-08-03T06:34:02;26.70;29.60
7341;DHT22;6870;50.944;6.932;2022-08-03T06:36:50;26.80;28.90
7341;DHT22;6870;50.944;6.932;2022-08-03T06:39:27;27.00;29.00
7341;DHT22;6870;50.944;6.932;2022-08-03T06:41:55;26.90;28.90
7341;DHT22;6870;50.944;6.932;2022-08-03T06:44:24;26.90;28.70
7341;DHT22;6870;50.944;6.932;2022-08-03T06:46:52;27.20;28.80
7341;DHT22;6870;50.944;6.932;2022-08-03T06:49:21;27.00;28.70
7341;DHT22;6870;50.944;6.932;2022-08-03T06:51:50;27.00;28.70
7341;DHT22;6870;50.944;6.932;2022-08-03T06:54:35;27.00;28.60
7341;DHT22;6870;50.944;6.932;2022-08-03T06:57:04;27.00;28.60
7341;DHT22;6870;50.944;6.932;2022-08-03T06:59:33;26.90;28.40
7341;DHT22;6870;50.944;6.932;2022-08-03T07:02:21;27.10;28.40
7341;DHT22;6870;50.944;6.932;2022-08-03T07:04:55;27.40;28.50
7341;DHT22;6870;50.944;6.932;2022-08-03T07:07:24;27.00;28.30
7341;DHT22;6870;50.944;6.932;2022-08-03T07:09:52;27.20;28.40
7341;DHT22;6870;50.944;6.932;2022-08-03T07:12:25;27.50;28.50
7341;DHT22;6870;50.944;6.932;2022-08-03T07:14:53;27.10;28.20
7341;DHT22;6870;50.944;6.932;2022-08-03T07:17:27;27.00;28.10
7341;DHT22;6870;50.944;6.932;2022-08-03T07:19:57;27.20;28.20
7341;DHT22;6870;50.944;6.932;2022-08-03T07:22:26;27.10;28.10
7341;DHT22;6870;50.944;6.932;2022-08-03T07:24:55;27.00;28.20
7341;DHT22;6870;50.944;6.932;2022-08-03T07:27:23;27.20;28.20
7341;DHT22;6870;50.944;6.932;2022-08-03T07:29:54;27.30;28.30
7341;DHT22;6870;50.944;6.932;2022-08-03T07:32:23;27.20;28.10
7341;DHT22;6870;50.944;6.932;2022-08-03T07:34:51;27.20;28.40
7341;DHT22;6870;50.944;6.932;2022-08-03T07:37:28;26.90;28.20
7341;DHT22;6870;50.944;6.932;2022-08-03T07:39:57;27.20;28.40
7341;DHT22;6870;50.944;6.932;2022-08-03T07:42:25;27.20;28.50
7341;DHT22;6870;50.944;6.932;2022-08-03T07:44:54;27.30;28.20
7341;DHT22;6870;50.944;6.932;2022-08-03T07:47:24;27.00;28.20
7341;DHT22;6870;50.944;6.932;2022-08-03T07:50:02;27.20;28.40
7341;DHT22;6870;50.944;6.932;2022-08-03T07:52:35;27.50;28.50
7341;DHT22;6870;50.944;6.932;2022-08-03T07:55:18;27.20;28.30
7341;DHT22;6870;50.944;6.932;2022-08-03T07:57:57;26.90;28.10
7341;DHT22;6870;50.944;6.932;2022-08-03T08:00:26;27.30;28.20
7341;DHT22;6870;50.944;6.932;2022-08-03T08:02:54;27.30;28.20
7341;DHT22;6870;50.944;6.932;2022-08-03T08:05:22;27.00;28.10
7341;DHT22;6870;50.944;6.932;2022-08-03T08:07:52;27.20;28.10
7341;DHT22;6870;50.944;6.932;2022-08-03T08:10:21;27.30;28.20
7341;DHT22;6870;50.944;6.932;2022-08-03T08:12:49;27.20;28.30
7341;DHT22;6870;50.944;6.932;2022-08-03T08:15:17;27.00;28.20
7341;DHT22;6870;50.944;6.932;2022-08-03T08:17:47;27.10;28.20
7341;DHT22;6870;50.944;6.932;2022-08-03T08:20:18;27.40;28.50
7341;DHT22;6870;50.944;6.932;2022-08-03T08:22:56;27.70;28.60
7341;DHT22;6870;50.944;6.932;2022-08-03T08:25:29;27.20;28.20
7341;DHT22;6870;50.944;6.932;2022-08-03T08:27:58;27.70;28.40
7341;DHT22;6870;50.944;6.932;2022-08-03T08:30:49;27.70;28.30
7341;DHT22;6870;50.944;6.932;2022-08-03T08:33:17;27.70;28.20
7341;DHT22;6870;50.944;6.932;2022-08-03T08:35:48;27.90;28.30
7341;DHT22;6870;50.944;6.932;2022-08-03T08:38:18;27.60;28.00
7341;DHT22;6870;50.944;6.932;2022-08-03T08:40:47;27.50;27.80
7341;DHT22;6870;50.944;6.932;2022-08-03T08:43:15;27.80;27.90
7341;DHT22;6870;50.944;6.932;2022-08-03T08:45:44;27.70;27.70
7341;DHT22;6870;50.944;6.932;2022-08-03T08:48:14;27.60;27.60
7341;DHT22;6870;50.944;6.932;2022-08-03T08:50:42;27.60;27.50
7341;DHT22;6870;50.944;6.932;2022-08-03T08:53:11;27.90;27.70
7341;DHT22;6870;50.944;6.932;2022-08-03T08:55:47;27.90;27.60
7341;DHT22;6870;50.944;6.932;2022-08-03T08:58:28;27.60;27.40
7341;DHT22;6870;50.944;6.932;2022-08-03T09:00:58;28.10;27.60
7341;DHT22;6870;50.944;6.932;2022-08-03T09:03:26;27.90;27.90
7341;DHT22;6870;50.944;6.932;2022-08-03T09:05:58;27.80;27.20
7341;DHT22;6870;50.944;6.932;2022-08-03T09:08:28;28.10;27.30
7341;DHT22;6870;50.944;6.932;2022-08-03T09:10:58;28.00;27.30
7341;DHT22;6870;50.944;6.932;2022-08-03T09:13:26;28.00;27.20
7341;DHT22;6870;50.944;6.932;2022-08-03T09:16:12;27.90;27.00
7341;DHT22;6870;50.944;6.932;2022-08-03T09:18:43;27.90;27.10
7341;DHT22;6870;50.944;6.932;2022-08-03T09:21:17;27.50;26.80
7341;DHT22;6870;50.944;6.932;2022-08-03T09:24:04;27.80;27.00
7341;DHT22;6870;50.944;6.932;2022-08-03T09:26:52;27.60;26.70
7341;DHT22;6870;50.944;6.932;2022-08-03T09:29:20;28.00;26.80
7341;DHT22;6870;50.944;6.932;2022-08-03T09:31:59;28.00;26.70
7341;DHT22;6870;50.944;6.932;2022-08-03T09:34:29;28.00;26.70
7341;DHT22;6870;50.944;6.932;2022-08-03T09:36:57;27.90;26.60
7341;DHT22;6870;50.944;6.932;2022-08-03T09:39:26;27.90;26.60
7341;DHT22;6870;50.944;6.932;2022-08-03T09:42:10;27.90;26.60
7341;DHT22;6870;50.944;6.932;2022-08-03T09:44:42;27.70;26.50
7341;DHT22;6870;50.944;6.932;2022-08-03T09:47:12;28.10;26.70
7341;DHT22;6870;50.944;6.932;2022-08-03T09:49:42;27.50;26.40
7341;DHT22;6870;50.944;6.932;2022-08-03T09:52:29;27.70;26.50
7341;DHT22;6870;50.944;6.932;2022-08-03T09:55:15;28.00;27.00
7341;DHT22;6870;50.944;6.932;2022-08-03T09:58:07;28.10;26.70
7341;DHT22;6870;50.944;6.932;2022-08-03T10:00:52;28.10;26.70
7341;DHT22;6870;50.944;6.932;2022-08-03T10:03:22;28.00;26.60
7341;DHT22;6870;50.944;6.932;2022-08-03T10:05:51;28.20;26.70
7341;DHT22;6870;50.944;6.932;2022-08-03T10:08:25;28.20;26.70
7341;DHT22;6870;50.944;6.932;2022-08-03T10:10:53;27.70;26.50
7341;DHT22;6870;50.944;6.932;2022-08-03T10:13:24;28.10;26.70
7341;DHT22;6870;50.944;6.932;2022-08-03T10:15:53;27.90;26.60
7341;DHT22;6870;50.944;6.932;2022-08-03T10:18:41;27.90;26.60
7341;DHT22;6870;50.944;6.932;2022-08-03T10:21:09;28.20;26.70
7341;DHT22;6870;50.944;6.932;2022-08-03T10:23:40;28.00;26.60
7341;DHT22;6870;50.944;6.932;2022-08-03T10:26:12;28.00;26.60
7341;DHT22;6870;50.944;6.932;2022-08-03T10:28:48;28.30;26.80
7341;DHT22;6870;50.944;6.932;2022-08-03T10:31:17;28.00;26.60
7341;DHT22;6870;50.944;6.932;2022-08-03T10:33:49;27.90;26.60
7341;DHT22;6870;50.944;6.932;2022-08-03T10:36:22;28.20;26.70
7341;DHT22;6870;50.944;6.932;2022-08-03T10:38:51;28.20;26.70
7341;DHT22;6870;50.944;6.932;2022-08-03T10:41:25;28.30;26.80
7341;DHT22;6870;50.944;6.932;2022-08-03T10:44:03;28.50;26.90
7341;DHT22;6870;50.944;6.932;2022-08-03T10:46:33;28.50;26.30
7341;DHT22;6870;50.944;6.932;2022-08-03T10:49:07;28.40;26.00
7341;DHT22;6870;50.944;6.932;2022-08-03T10:51:37;28.60;25.90
7341;DHT22;6870;50.944;6.932;2022-08-03T10:54:05;28.70;25.80
7341;DHT22;6870;50.944;6.932;2022-08-03T10:56:39;28.70;25.80
7341;DHT22;6870;50.944;6.932;2022-08-03T11:00:08;28.50;26.10
7341;DHT22;6870;50.944;6.932;2022-08-03T11:03:08;28.70;25.50
7341;DHT22;6870;50.944;6.932;2022-08-03T11:05:41;28.90;25.50
7341;DHT22;6870;50.944;6.932;2022-08-03T11:08:30;28.80;25.60
7341;DHT22;6870;50.944;6.932;2022-08-03T11:11:02;28.60;25.20
7341;DHT22;6870;50.944;6.932;2022-08-03T11:13:59;28.80;25.10
7341;DHT22;6870;50.944;6.932;2022-08-03T11:16:33;28.70;25.00
7341;DHT22;6870;50.944;6.932;2022-08-03T11:19:04;28.70;24.90
7341;DHT22;6870;50.944;6.932;2022-08-03T11:21:56;28.80;24.80
7341;DHT22;6870;50.944;6.932;2022-08-03T11:24:58;28.90;24.50
7341;DHT22;6870;50.944;6.932;2022-08-03T11:27:30;28.80;24.40
7341;DHT22;6870;50.944;6.932;2022-08-03T11:30:01;28.80;24.30
7341;DHT22;6870;50.944;6.932;2022-08-03T11:32:52;28.90;24.30
7341;DHT22;6870;50.944;6.932;2022-08-03T11:35:26;29.40;24.50
7341;DHT22;6870;50.944;6.932;2022-08-03T11:38:03;29.20;24.40
7341;DHT22;6870;50.944;6.932;2022-08-03T11:40:35;29.00;24.10
7341;DHT22;6870;50.944;6.932;2022-08-03T11:43:05;29.10;24.20
7341;DHT22;6870;50.944;6.932;2022-08-03T11:45:34;29.00;24.00
7341;DHT22;6870;50.944;6.932;2022-08-03T11:48:14;29.20;24.10
7341;DHT22;6870;50.944;6.932;2022-08-03T11:50:43;29.40;24.30
7341;DHT22;6870;50.944;6.932;2022-08-03T11:53:14;28.90;23.90
7341;DHT22;6870;50.944;6.932;2022-08-03T11:55:44;29.50;24.30
7341;DHT22;6870;50.944;6.932;2022-08-03T11:58:16;29.60;24.20
7341;DHT22;6870;50.944;6.932;2022-08-03T12:01:06;29.10;24.20
7341;DHT22;6870;50.944;6.932;2022-08-03T12:03:38;29.30;24.60
7341;DHT22;6870;50.944;6.932;2022-08-03T12:06:08;29.10;24.50
7341;DHT22;6870;50.944;6.932;2022-08-03T12:08:37;29.50;24.80
7341;DHT22;6870;50.944;6.932;2022-08-03T12:11:08;29.50;24.70
7341;DHT22;6870;50.944;6.932;2022-08-03T12:13:41;29.50;24.50
7341;DHT22;6870;50.944;6.932;2022-08-03T12:16:29;29.20;24.20
7341;DHT22;6870;50.944;6.932;2022-08-03T12:19:00;29.30;24.10
7341;DHT22;6870;50.944;6.932;2022-08-03T12:21:31;29.50;24.10
7341;DHT22;6870;50.944;6.932;2022-08-03T12:24:01;29.40;23.90
7341;DHT22;6870;50.944;6.932;2022-08-03T12:26:42;29.40;23.70
7341;DHT22;6870;50.944;6.932;2022-08-03T12:29:24;30.00;23.90
7341;DHT22;6870;50.944;6.932;2022-08-03T12:31:53;29.60;23.60
7341;DHT22;6870;50.944;6.932;2022-08-03T12:34:23;29.30;23.30
7341;DHT22;6870;50.944;6.932;2022-08-03T12:36:56;29.90;23.60
7341;DHT22;6870;50.944;6.932;2022-08-03T12:39:26;29.50;23.20
7341;DHT22;6870;50.944;6.932;2022-08-03T12:41:56;29.70;23.20
7341;DHT22;6870;50.944;6.932;2022-08-03T12:44:29;29.90;23.20
7341;DHT22;6870;50.944;6.932;2022-08-03T12:46:58;29.60;23.00
7341;DHT22;6870;50.944;6.932;2022-08-03T12:49:43;29.60;22.90
7341;DHT22;6870;50.944;6.932;2022-08-03T12:52:13;29.40;22.70
7341;DHT22;6870;50.944;6.932;2022-08-03T12:54:42;30.00;22.60
7341;DHT22;6870;50.944;6.932;2022-08-03T12:57:12;29.80;22.40
7341;DHT22;6870;50.944;6.932;2022-08-03T12:59:43;29.40;22.50
7341;DHT22;6870;50.944;6.932;2022-08-03T13:02:20;29.70;22.40
7341;DHT22;6870;50.944;6.932;2022-08-03T13:04:51;29.70;22.30
7341;DHT22;6870;50.944;6.932;2022-08-03T13:07:21;30.10;22.60
7341;DHT22;6870;50.944;6.932;2022-08-03T13:09:50;29.80;22.40
7341;DHT22;6870;50.944;6.932;2022-08-03T13:12:21;29.80;22.40
7341;DHT22;6870;50.944;6.932;2022-08-03T13:14:51;30.00;22.50
7341;DHT22;6870;50.944;6.932;2022-08-03T13:17:21;29.90;22.40
7341;DHT22;6870;50.944;6.932;2022-08-03T13:19:51;29.70;22.30
7341;DHT22;6870;50.944;6.932;2022-08-03T13:22:21;30.10;22.60
7341;DHT22;6870;50.944;6.932;2022-08-03T13:24:51;30.10;22.60
7341;DHT22;6870;50.944;6.932;2022-08-03T13:27:21;30.00;23.10
7341;DHT22;6870;50.944;6.932;2022-08-03T13:30:10;29.70;22.30
7341;DHT22;6870;50.944;6.932;2022-08-03T13:32:38;30.30;22.60
7341;DHT22;6870;50.944;6.932;2022-08-03T13:35:08;29.80;22.10
7341;DHT22;6870;50.944;6.932;2022-08-03T13:37:42;30.00;22.50
7341;DHT22;6870;50.944;6.932;2022-08-03T13:40:14;29.80;22.30
7341;DHT22;6870;50.944;6.932;2022-08-03T13:42:42;29.90;22.40
7341;DHT22;6870;50.944;6.932;2022-08-03T13:45:10;30.00;22.50
7341;DHT22;6870;50.944;6.932;2022-08-03T13:47:39;29.60;22.30
7341;DHT22;6870;50.944;6.932;2022-08-03T13:50:08;29.60;22.30
7341;DHT22;6870;50.944;6.932;2022-08-03T13:52:36;29.50;22.20
7341;DHT22;6870;50.944;6.932;2022-08-03T13:55:05;29.50;22.20
7341;DHT22;6870;50.944;6.932;2022-08-03T13:57:34;29.40;22.50
7341;DHT22;6870;50.944;6.932;2022-08-03T14:00:22;29.50;22.60
7341;DHT22;6870;50.944;6.932;2022-08-03T14:02:56;29.50;23.20
7341;DHT22;6870;50.944;6.932;2022-08-03T14:05:36;29.50;23.40
7341;DHT22;6870;50.944;6.932;2022-08-03T14:08:05;29.60;23.70
7341;DHT22;6870;50.944;6.932;2022-08-03T14:10:34;29.70;23.70
7341;DHT22;6870;50.944;6.932;2022-08-03T14:13:05;29.30;23.60
7341;DHT22;6870;50.944;6.932;2022-08-03T14:15:33;29.50;23.80
7341;DHT22;6870;50.944;6.932;2022-08-03T14:18:04;29.40;23.90
7341;DHT22;6870;50.944;6.932;2022-08-03T14:20:54;29.70;24.40
7341;DHT22;6870;50.944;6.932;2022-08-03T14:23:31;29.50;24.20
7341;DHT22;6870;50.944;6.932;2022-08-03T14:25:59;29.40;24.10
7341;DHT22;6870;50.944;6.932;2022-08-03T14:28:28;29.70;24.50
7341;DHT22;6870;50.944;6.932;2022-08-03T14:30:56;29.60;24.60
7341;DHT22;6870;50.944;6.932;2022-08-03T14:33:24;29.80;24.70
7341;DHT22;6870;50.944;6.932;2022-08-03T14:35:55;29.90;24.40
7341;DHT22;6870;50.944;6.932;2022-08-03T14:38:23;29.80;23.80
7341;DHT22;6870;50.944;6.932;2022-08-03T14:40:52;29.90;23.80
7341;DHT22;6870;50.944;6.932;2022-08-03T14:43:20;29.80;23.80
7341;DHT22;6870;50.944;6.932;2022-08-03T14:45:48;29.90;24.10
7341;DHT22;6870;50.944;6.932;2022-08-03T14:48:20;30.00;24.20
7341;DHT22;6870;50.944;6.932;2022-08-03T14:51:10;29.90;24.20
7341;DHT22;6870;50.944;6.932;2022-08-03T14:53:39;30.10;24.60
7341;DHT22;6870;50.944;6.932;2022-08-03T14:56:07;30.10;25.20
7341;DHT22;6870;50.944;6.932;2022-08-03T14:58:36;29.70;25.10
7341;DHT22;6870;50.944;6.932;2022-08-03T15:01:05;29.90;25.50
7341;DHT22;6870;50.944;6.932;2022-08-03T15:03:54;29.70;25.60
7341;DHT22;6870;50.944;6.932;2022-08-03T15:06:23;29.90;25.80
7341;DHT22;6870;50.944;6.932;2022-08-03T15:08:51;30.00;25.80
7341;DHT22;6870;50.944;6.932;2022-08-03T15:11:40;29.70;25.60
7341;DHT22;6870;50.944;6.932;2022-08-03T15:14:08;29.90;25.50
7341;DHT22;6870;50.944;6.932;2022-08-03T15:16:40;30.10;25.60
7341;DHT22;6870;50.944;6.932;2022-08-03T15:19:09;29.70;25.30
7341;DHT22;6870;50.944;6.932;2022-08-03T15:21:58;29.80;25.40
7341;DHT22;6870;50.944;6.932;2022-08-03T15:24:27;29.60;25.20
7341;DHT22;6870;50.944;6.932;2022-08-03T15:26:55;29.80;25.30
7341;DHT22;6870;50.944;6.932;2022-08-03T15:29:24;29.60;25.30
7341;DHT22;6870;50.944;6.932;2022-08-03T15:32:12;29.60;25.40
7341;DHT22;6870;50.944;6.932;2022-08-03T15:34:40;29.80;25.50
7341;DHT22;6870;50.944;6.932;2022-08-03T15:37:18;29.50;25.30
7341;DHT22;6870;50.944;6.932;2022-08-03T15:39:46;29.70;25.30
7341;DHT22;6870;50.944;6.932;2022-08-03T15:42:27;29.80;25.50
7341;DHT22;6870;50.944;6.932;2022-08-03T15:44:55;29.70;25.00
7341;DHT22;6870;50.944;6.932;2022-08-03T15:47:24;29.70;25.00
7341;DHT22;6870;50.944;6.932;2022-08-03T15:49:52;29.30;24.90
7341;DHT22;6870;50.944;6.932;2022-08-03T15:52:22;29.70;25.40
7341;DHT22;6870;50.944;6.932;2022-08-03T15:54:50;29.30;25.30
7341;DHT22;6870;50.944;6.932;2022-08-03T15:57:18;29.60;25.50
7341;DHT22;6870;50.944;6.932;2022-08-03T15:59:47;29.80;25.70
7341;DHT22;6870;50.944;6.932;2022-08-03T16:02:15;29.40;25.40
7341;DHT22;6870;50.944;6.932;2022-08-03T16:04:43;29.60;25.60
7341;DHT22;6870;50.944;6.932;2022-08-03T16:07:11;29.40;26.00
7341;DHT22;6870;50.944;6.932;2022-08-03T16:09:42;29.60;26.10
7341;DHT22;6870;50.944;6.932;2022-08-03T16:12:10;29.40;25.90
7341;DHT22;6870;50.944;6.932;2022-08-03T16:14:43;29.30;25.70
7341;DHT22;6870;50.944;6.932;2022-08-03T16:17:20;29.60;25.90
7341;DHT22;6870;50.944;6.932;2022-08-03T16:19:50;29.70;25.90
7341;DHT22;6870;50.944;6.932;2022-08-03T16:22:21;29.50;25.80
7341;DHT22;6870;50.944;6.932;2022-08-03T16:24:51;29.50;25.80
7341;DHT22;6870;50.944;6.932;2022-08-03T16:27:20;29.40;25.80
7341;DHT22;6870;50.944;6.932;2022-08-03T16:30:10;29.50;25.90
7341;DHT22;6870;50.944;6.932;2022-08-03T16:32:41;29.80;26.00
7341;DHT22;6870;50.944;6.932;2022-08-03T16:35:10;29.50;25.80
7341;DHT22;6870;50.944;6.932;2022-08-03T16:37:47;29.70;25.80
7341;DHT22;6870;50.944;6.932;2022-08-03T16:40:24;29.30;25.60